Time;durP1;ratioP1;P1;durP2;ratioP2;P2;SDS_P1;SDS_P2;PMS_P1;PMS_P2;Temp;Humidity;BMP_temperature;BMP_pressure;BME280_temperature;BME280_humidity;BME280_pressure;Samples;Min_cycle;Max_cycle;Signal;HPM_P1;HPM_P2
2023/12/19 00:00:11;;;;;;;0.93;0.75;;;;;;;;;;5064580;28;20032;-76
2023/12/19 00:02:37;;;;;;;0.47;0.47;;;;;;;;;;5059343;28;20083;-77
2023/12/19 00:05:03;;;;;;;1.45;0.80;;;;;;;;;;5061628;28;20029;-76
2023/12/19 00:07:30;;;;;;;1.17;0.98;;;;;;;;;;5060495;28;20028;-76
2023/12/19 00:09:56;;;;;;;1.05;0.95;;;;;;;;;;5050606;28;20044;-77
2023/12/19 00:12:22;;;;;;;2.03;1.10;;;;;;;;;;5060212;28;20028;-77
2023/12/19 00:14:48;;;;;;;1.27;1.00;;;;;;;;;;5059576;28;20100;-78
2023/12/19 00:17:14;;;;;;;0.95;0.80;;;;;;;;;;5056373;28;20064;-76
2023/12/19 00:19:40;;;;;;;1.67;1.05;;;;;;;;;;5058218;28;20029;-78
2023/12/19 00:22:06;;;;;;;1.60;0.95;;;;;;;;;;5059227;28;20025;-76
2023/12/19 00:24:32;;;;;;;1.80;0.80;;;;;;;;;;5059845;28;20029;-77
2023/12/19 00:26:58;;;;;;;0.75;0.68;;;;;;;;;;5059019;28;20023;-79
2023/12/19 00:29:25;;;;;;;0.90;0.70;;;;;;;;;;5050700;28;20108;-79
2023/12/19 00:31:51;;;;;;;1.85;1.02;;;;;;;;;;5059798;28;20096;-77
2023/12/19 00:34:18;;;;;;;0.68;0.60;;;;;;;;;;5058126;28;20070;-77
2023/12/19 00:36:44;;;;;;;1.48;1.00;;;;;;;;;;5062835;28;20025;-78
2023/12/19 00:39:10;;;;;;;0.90;0.70;;;;;;;;;;5063974;28;20036;-77
2023/12/19 00:41:37;;;;;;;1.33;0.80;;;;;;;;;;5054416;28;20025;-77
2023/12/19 00:44:03;;;;;;;0.60;0.60;;;;;;;;;;5070617;28;20017;-77
2023/12/19 00:46:30;;;;;;;1.02;0.63;;;;;;;;;;5065500;28;20044;-77
2023/12/19 00:48:56;;;;;;;0.80;0.68;;;;;;;;;;5061493;28;20027;-76
2023/12/19 00:51:22;;;;;;;1.60;0.70;;;;;;;;;;5063683;28;20522;-78
2023/12/19 00:53:48;;;;;;;2.25;0.98;;;;;;;;;;5061855;28;20036;-76
2023/12/19 00:56:14;;;;;;;0.90;0.70;;;;;;;;;;5063425;28;20025;-77
2023/12/19 00:58:40;;;;;;;1.05;0.95;;;;;;;;;;5062620;28;20025;-77
2023/12/19 01:01:07;;;;;;;0.70;0.65;;;;;;;;;;5069981;28;20511;-77
2023/12/19 01:03:33;;;;;;;0.70;0.50;;;;;;;;;;5066644;28;20067;-78
2023/12/19 01:06:01;;;;;;;1.15;0.90;;;;;;;;;;5069681;28;20029;-76
2023/12/19 01:08:27;;;;;;;1.40;0.80;;;;;;;;;;5068916;28;20029;-78
2023/12/19 01:10:54;;;;;;;1.40;1.00;;;;;;;;;;5069560;28;20016;-78
2023/12/19 01:13:20;;;;;;;1.05;0.80;;;;;;;;;;5060945;28;20069;-76
2023/12/19 01:15:46;;;;;;;0.77;0.77;;;;;;;;;;5057571;28;20095;-78
2023/12/19 01:18:12;;;;;;;1.35;0.70;;;;;;;;;;5066057;28;20040;-78
2023/12/19 01:20:39;;;;;;;1.63;0.75;;;;;;;;;;5062668;28;20031;-77
2023/12/19 01:23:06;;;;;;;1.30;0.75;;;;;;;;;;5050875;28;20018;-78
2023/12/19 01:25:37;;;;;;;0.60;0.60;;;;;;;;;;5054194;28;20033;-79
2023/12/19 01:28:04;;;;;;;1.02;0.60;;;;;;;;;;5056481;28;20085;-78
2023/12/19 01:30:30;;;;;;;1.27;0.55;;;;;;;;;;5055127;28;20025;-78
2023/12/19 01:32:56;;;;;;;1.10;0.77;;;;;;;;;;5058094;28;20009;-77
2023/12/19 01:35:22;;;;;;;1.42;0.70;;;;;;;;;;5062706;28;20052;-77
2023/12/19 01:37:49;;;;;;;0.85;0.55;;;;;;;;;;5072952;28;20397;-78
2023/12/19 01:40:15;;;;;;;0.98;0.80;;;;;;;;;;5063910;28;20021;-78
2023/12/19 01:42:41;;;;;;;1.30;0.80;;;;;;;;;;5065397;28;20029;-77
2023/12/19 01:45:12;;;;;;;0.75;0.75;;;;;;;;;;5057357;28;20036;-77
2023/12/19 01:47:40;;;;;;;0.85;0.50;;;;;;;;;;5055391;28;20021;-79
2023/12/19 01:50:10;;;;;;;0.68;0.68;;;;;;;;;;5056805;28;20036;-78
2023/12/19 01:52:40;;;;;;;0.85;0.60;;;;;;;;;;5051931;28;20026;-79
2023/12/19 01:55:07;;;;;;;1.27;0.80;;;;;;;;;;5058168;28;20025;-77
2023/12/19 01:57:34;;;;;;;0.68;0.63;;;;;;;;;;5049338;28;20033;-77
2023/12/19 02:00:00;;;;;;;0.70;0.47;;;;;;;;;;5057839;28;20068;-78
2023/12/19 02:02:26;;;;;;;1.90;1.02;;;;;;;;;;5058948;28;20380;-79
2023/12/19 02:04:54;;;;;;;0.63;0.60;;;;;;;;;;5057299;28;20025;-78
2023/12/19 02:07:21;;;;;;;0.93;0.60;;;;;;;;;;5056305;28;20029;-78
2023/12/19 02:09:47;;;;;;;0.73;0.52;;;;;;;;;;5056137;28;20025;-78
2023/12/19 02:12:13;;;;;;;0.57;0.45;;;;;;;;;;5056003;28;20104;-78
2023/12/19 02:14:43;;;;;;;0.50;0.45;;;;;;;;;;5057940;28;20084;-78
2023/12/19 02:17:11;;;;;;;1.13;0.50;;;;;;;;;;5062438;28;20029;-77
2023/12/19 02:19:44;;;;;;;0.43;0.43;;;;;;;;;;5070532;28;20024;-78
2023/12/19 02:22:10;;;;;;;0.57;0.45;;;;;;;;;;5064814;28;20393;-78
2023/12/19 02:24:36;;;;;;;0.70;0.60;;;;;;;;;;5049218;28;20032;-79
2023/12/19 02:27:03;;;;;;;0.45;0.40;;;;;;;;;;5071738;28;20075;-77
2023/12/19 02:29:29;;;;;;;0.60;0.60;;;;;;;;;;5055234;28;20086;-78
2023/12/19 02:31:55;;;;;;;0.93;0.65;;;;;;;;;;5055046;28;20028;-79
2023/12/19 02:34:21;;;;;;;0.93;0.70;;;;;;;;;;5055006;28;20025;-78
2023/12/19 02:36:47;;;;;;;0.73;0.50;;;;;;;;;;5051900;28;20037;-78
2023/12/19 02:39:13;;;;;;;0.70;0.57;;;;;;;;;;5047455;28;20067;-78
2023/12/19 02:41:40;;;;;;;0.50;0.50;;;;;;;;;;5053462;28;20120;-78
2023/12/19 02:44:06;;;;;;;0.50;0.50;;;;;;;;;;5054128;28;20040;-78
2023/12/19 02:46:32;;;;;;;1.08;0.75;;;;;;;;;;5053401;28;20029;-77
2023/12/19 02:48:58;;;;;;;1.70;1.00;;;;;;;;;;5050230;28;20029;-77
2023/12/19 02:51:25;;;;;;;0.68;0.50;;;;;;;;;;5051296;28;20083;-77
2023/12/19 02:53:51;;;;;;;0.55;0.55;;;;;;;;;;5055239;28;20039;-77
2023/12/19 02:56:18;;;;;;;1.17;0.77;;;;;;;;;;5054648;28;20040;-77
2023/12/19 02:58:44;;;;;;;1.10;0.80;;;;;;;;;;5054083;28;20430;-76
2023/12/19 03:01:10;;;;;;;0.68;0.47;;;;;;;;;;5054408;28;20029;-77
2023/12/19 03:03:36;;;;;;;1.83;0.80;;;;;;;;;;5054818;28;20021;-78
2023/12/19 03:06:02;;;;;;;0.50;0.50;;;;;;;;;;5055403;28;20025;-78
2023/12/19 03:08:28;;;;;;;0.80;0.70;;;;;;;;;;5055462;28;20431;-78
2023/12/19 03:10:54;;;;;;;0.40;0.40;;;;;;;;;;5060163;28;20116;-77
2023/12/19 03:13:20;;;;;;;0.47;0.47;;;;;;;;;;5044083;28;20022;-79
2023/12/19 03:15:47;;;;;;;0.95;0.65;;;;;;;;;;5053501;28;20025;-77
2023/12/19 03:18:13;;;;;;;0.60;0.60;;;;;;;;;;5054260;28;20070;-78
2023/12/19 03:20:39;;;;;;;1.05;0.50;;;;;;;;;;5054142;28;20392;-78
2023/12/19 03:23:05;;;;;;;0.63;0.50;;;;;;;;;;5054425;28;20025;-78
2023/12/19 03:25:31;;;;;;;0.38;0.38;;;;;;;;;;5042279;28;20163;-78
2023/12/19 03:27:57;;;;;;;0.60;0.60;;;;;;;;;;5054590;28;20028;-78
2023/12/19 03:30:23;;;;;;;0.40;0.30;;;;;;;;;;5054664;28;20036;-79
2023/12/19 03:32:49;;;;;;;0.65;0.40;;;;;;;;;;5054532;28;20061;-77
2023/12/19 03:35:15;;;;;;;0.30;0.30;;;;;;;;;;5060609;28;20017;-78
2023/12/19 03:37:41;;;;;;;0.50;0.50;;;;;;;;;;5073482;28;20114;-78
2023/12/19 03:40:09;;;;;;;0.43;0.43;;;;;;;;;;5072860;28;20059;-77
2023/12/19 03:42:35;;;;;;;1.05;0.65;;;;;;;;;;5069307;28;20005;-76
2023/12/19 03:45:01;;;;;;;0.60;0.50;;;;;;;;;;5059336;28;20395;-78
2023/12/19 03:47:27;;;;;;;0.82;0.77;;;;;;;;;;5054439;28;20025;-77
2023/12/19 03:49:54;;;;;;;0.88;0.50;;;;;;;;;;5058285;28;20028;-78
2023/12/19 03:52:21;;;;;;;0.55;0.50;;;;;;;;;;5056892;28;20050;-78
2023/12/19 03:54:47;;;;;;;0.77;0.40;;;;;;;;;;5069464;28;20025;-77
2023/12/19 03:57:13;;;;;;;0.52;0.40;;;;;;;;;;5055128;28;20346;-77
2023/12/19 03:59:42;;;;;;;0.57;0.50;;;;;;;;;;5054378;28;20341;-78
2023/12/19 04:02:08;;;;;;;0.77;0.40;;;;;;;;;;5056913;28;20032;-78
2023/12/19 04:04:35;;;;;;;0.80;0.80;;;;;;;;;;5043137;28;20036;-78
2023/12/19 04:07:01;;;;;;;0.93;0.45;;;;;;;;;;5055087;28;20063;-77
2023/12/19 04:09:27;;;;;;;1.20;0.73;;;;;;;;;;5058392;28;20479;-79
2023/12/19 04:11:53;;;;;;;1.10;0.60;;;;;;;;;;5049621;28;20029;-79
2023/12/19 04:14:20;;;;;;;0.43;0.30;;;;;;;;;;5058082;28;20216;-79
2023/12/19 04:16:46;;;;;;;1.25;0.60;;;;;;;;;;5057789;28;20028;-79
2023/12/19 04:19:15;;;;;;;0.60;0.40;;;;;;;;;;5060069;28;20186;-79
2023/12/19 04:21:41;;;;;;;0.47;0.47;;;;;;;;;;5059286;28;20064;-78
2023/12/19 04:24:08;;;;;;;0.93;0.40;;;;;;;;;;5048328;28;20033;-77
2023/12/19 04:26:34;;;;;;;0.88;0.50;;;;;;;;;;5057989;28;20025;-78
2023/12/19 04:29:03;;;;;;;0.43;0.30;;;;;;;;;;5055805;28;20039;-77
2023/12/19 04:31:32;;;;;;;0.60;0.30;;;;;;;;;;5055900;28;20025;-77
2023/12/19 04:33:58;;;;;;;0.85;0.50;;;;;;;;;;5047555;28;20013;-78
2023/12/19 04:36:27;;;;;;;0.50;0.40;;;;;;;;;;5058590;28;20039;-78
2023/12/19 04:38:53;;;;;;;0.43;0.40;;;;;;;;;;5055955;28;20090;-78
2023/12/19 04:41:19;;;;;;;0.50;0.50;;;;;;;;;;5057211;28;20029;-78
2023/12/19 04:43:45;;;;;;;0.43;0.40;;;;;;;;;;5058213;28;20384;-77
2023/12/19 04:46:12;;;;;;;0.75;0.47;;;;;;;;;;5048139;28;20029;-77
2023/12/19 04:48:38;;;;;;;0.43;0.40;;;;;;;;;;5053878;28;20021;-78
2023/12/19 04:51:04;;;;;;;0.55;0.50;;;;;;;;;;5053479;28;20033;-77
2023/12/19 04:53:31;;;;;;;0.35;0.35;;;;;;;;;;5059469;28;20138;-77
2023/12/19 04:55:57;;;;;;;0.47;0.30;;;;;;;;;;5053829;28;20025;-78
2023/12/19 04:58:23;;;;;;;0.60;0.40;;;;;;;;;;5056995;28;20590;-77
2023/12/19 05:00:51;;;;;;;0.82;0.65;;;;;;;;;;5068372;28;20033;-77
2023/12/19 05:03:17;;;;;;;1.08;0.60;;;;;;;;;;5069316;28;20063;-77
2023/12/19 05:05:44;;;;;;;1.20;0.68;;;;;;;;;;5067162;28;20039;-77
2023/12/19 05:08:11;;;;;;;0.93;0.47;;;;;;;;;;5090427;28;20045;-77
2023/12/19 05:10:37;;;;;;;0.70;0.50;;;;;;;;;;5073668;28;20084;-78
2023/12/19 05:13:03;;;;;;;0.70;0.40;;;;;;;;;;5067108;28;20012;-76
2023/12/19 05:15:32;;;;;;;0.70;0.70;;;;;;;;;;5066718;28;20288;-77
2023/12/19 05:17:58;;;;;;;0.65;0.50;;;;;;;;;;5059067;28;20013;-77
2023/12/19 05:20:24;;;;;;;0.85;0.65;;;;;;;;;;5059530;28;20051;-77
2023/12/19 05:22:50;;;;;;;0.63;0.45;;;;;;;;;;5056997;28;20017;-77
2023/12/19 05:25:16;;;;;;;0.70;0.40;;;;;;;;;;5057203;28;20045;-77
2023/12/19 05:27:43;;;;;;;0.73;0.52;;;;;;;;;;5058180;28;20048;-77
2023/12/19 05:30:11;;;;;;;0.63;0.47;;;;;;;;;;5058581;28;20013;-76
2023/12/19 05:32:37;;;;;;;0.73;0.40;;;;;;;;;;5058240;28;20447;-77
2023/12/19 05:35:04;;;;;;;0.57;0.43;;;;;;;;;;5049016;28;20021;-78
2023/12/19 05:37:30;;;;;;;1.23;0.70;;;;;;;;;;5056799;28;20039;-77
2023/12/19 05:39:56;;;;;;;0.98;0.52;;;;;;;;;;5049784;28;20491;-78
2023/12/19 05:42:22;;;;;;;1.70;0.43;;;;;;;;;;5057982;28;20439;-77
2023/12/19 05:44:48;;;;;;;1.00;0.50;;;;;;;;;;5058528;28;20025;-76
2023/12/19 05:47:14;;;;;;;0.47;0.30;;;;;;;;;;5056978;28;20036;-76
2023/12/19 05:49:40;;;;;;;0.50;0.50;;;;;;;;;;5050273;28;20042;-77
2023/12/19 05:52:06;;;;;;;0.80;0.57;;;;;;;;;;5043348;28;20048;-76
2023/12/19 05:54:33;;;;;;;0.75;0.40;;;;;;;;;;5058312;28;20104;-76
2023/12/19 05:56:59;;;;;;;0.28;0.28;;;;;;;;;;5069792;28;20112;-77
2023/12/19 05:59:25;;;;;;;0.95;0.47;;;;;;;;;;5057177;28;20106;-77
2023/12/19 06:01:51;;;;;;;0.55;0.55;;;;;;;;;;5057295;28;20025;-76
2023/12/19 06:04:18;;;;;;;0.52;0.40;;;;;;;;;;5059288;28;20076;-78
2023/12/19 06:06:44;;;;;;;0.45;0.40;;;;;;;;;;5058022;28;20675;-77
2023/12/19 06:09:11;;;;;;;0.25;0.25;;;;;;;;;;5057638;28;20364;-77
2023/12/19 06:11:37;;;;;;;0.38;0.30;;;;;;;;;;5049578;28;20017;-78
2023/12/19 06:14:07;;;;;;;1.75;0.38;;;;;;;;;;5060801;28;20025;-78
2023/12/19 06:16:33;;;;;;;0.20;0.15;;;;;;;;;;5059407;28;20033;-76
2023/12/19 06:18:59;;;;;;;0.22;0.22;;;;;;;;;;5056329;28;20045;-77
2023/12/19 06:21:25;;;;;;;0.20;0.20;;;;;;;;;;5058497;28;20029;-77
2023/12/19 06:23:52;;;;;;;0.30;0.30;;;;;;;;;;5068581;28;20029;-77
2023/12/19 06:26:18;;;;;;;0.73;0.40;;;;;;;;;;5059858;28;20025;-78
2023/12/19 06:28:44;;;;;;;0.43;0.30;;;;;;;;;;5063482;28;20112;-77
2023/12/19 06:31:10;;;;;;;0.52;0.40;;;;;;;;;;5064815;28;20079;-78
2023/12/19 06:33:36;;;;;;;0.68;0.60;;;;;;;;;;5070966;28;20066;-77
2023/12/19 06:36:03;;;;;;;0.50;0.50;;;;;;;;;;5057911;28;20021;-77
2023/12/19 06:38:29;;;;;;;0.80;0.52;;;;;;;;;;5059508;28;20097;-77
2023/12/19 06:40:55;;;;;;;1.55;0.40;;;;;;;;;;5057745;28;20025;-76
2023/12/19 06:43:21;;;;;;;1.50;0.60;;;;;;;;;;5057205;28;20563;-76
2023/12/19 06:45:48;;;;;;;0.73;0.50;;;;;;;;;;5056829;28;20100;-76
2023/12/19 06:48:14;;;;;;;0.38;0.38;;;;;;;;;;5057708;28;20392;-77
2023/12/19 06:50:40;;;;;;;0.82;0.57;;;;;;;;;;5050854;28;20042;-77
2023/12/19 06:53:06;;;;;;;0.30;0.30;;;;;;;;;;5057955;28;20392;-76
2023/12/19 06:55:32;;;;;;;1.48;0.60;;;;;;;;;;5064411;28;20092;-77
2023/12/19 06:57:58;;;;;;;2.13;0.73;;;;;;;;;;5066023;28;20029;-77
2023/12/19 07:00:24;;;;;;;0.65;0.55;;;;;;;;;;5064567;28;20037;-77
2023/12/19 07:02:50;;;;;;;0.65;0.65;;;;;;;;;;5062831;28;20031;-77
2023/12/19 07:05:17;;;;;;;0.70;0.45;;;;;;;;;;5075683;28;20025;-75
2023/12/19 07:07:43;;;;;;;2.13;0.80;;;;;;;;;;5077377;28;20027;-76
2023/12/19 07:10:09;;;;;;;0.77;0.50;;;;;;;;;;5074803;28;20025;-77
2023/12/19 07:12:35;;;;;;;0.65;0.57;;;;;;;;;;5075674;28;20080;-77
2023/12/19 07:15:04;;;;;;;1.33;0.65;;;;;;;;;;5066259;28;20515;-77
2023/12/19 07:17:30;;;;;;;0.93;0.60;;;;;;;;;;5056747;28;20020;-76
2023/12/19 07:19:56;;;;;;;0.70;0.70;;;;;;;;;;5062222;28;20414;-77
2023/12/19 07:22:23;;;;;;;1.13;0.80;;;;;;;;;;5063534;28;20036;-78
2023/12/19 07:24:49;;;;;;;2.17;0.57;;;;;;;;;;5062694;28;20075;-78
2023/12/19 07:27:15;;;;;;;0.82;0.68;;;;;;;;;;5067547;28;20514;-78
2023/12/19 07:29:41;;;;;;;1.10;0.82;;;;;;;;;;5069731;28;20027;-77
2023/12/19 07:32:08;;;;;;;0.70;0.60;;;;;;;;;;5047875;28;20057;-76
2023/12/19 07:34:34;;;;;;;1.02;0.70;;;;;;;;;;5053737;28;20067;-77
2023/12/19 07:37:02;;;;;;;1.80;0.70;;;;;;;;;;5057349;28;20103;-79
2023/12/19 07:39:28;;;;;;;1.20;0.68;;;;;;;;;;5057388;28;20025;-78
2023/12/19 07:41:54;;;;;;;0.55;0.50;;;;;;;;;;5056552;28;20094;-77
2023/12/19 07:44:22;;;;;;;0.80;0.60;;;;;;;;;;5057656;28;20063;-78
2023/12/19 07:46:48;;;;;;;0.98;0.60;;;;;;;;;;5058874;28;20502;-77
2023/12/19 07:49:14;;;;;;;0.63;0.50;;;;;;;;;;5057308;28;20036;-77
2023/12/19 07:51:41;;;;;;;3.30;0.70;;;;;;;;;;5059487;28;20031;-78
2023/12/19 07:54:07;;;;;;;0.95;0.70;;;;;;;;;;5059234;28;20021;-77
2023/12/19 07:56:33;;;;;;;2.47;0.52;;;;;;;;;;5058597;28;20361;-77
2023/12/19 07:58:59;;;;;;;1.63;0.70;;;;;;;;;;5058058;28;20044;-79
2023/12/19 08:01:25;;;;;;;1.35;0.75;;;;;;;;;;5058404;28;20029;-78
2023/12/19 08:03:51;;;;;;;1.00;0.90;;;;;;;;;;5058259;28;20077;-79
2023/12/19 08:06:18;;;;;;;1.65;0.80;;;;;;;;;;5058165;28;20020;-77
2023/12/19 08:08:44;;;;;;;0.75;0.57;;;;;;;;;;5056288;28;20033;-77
2023/12/19 08:11:12;;;;;;;0.90;0.60;;;;;;;;;;5068391;28;20035;-76
2023/12/19 08:13:38;;;;;;;0.98;0.60;;;;;;;;;;5059354;28;20013;-77
2023/12/19 08:16:05;;;;;;;0.95;0.50;;;;;;;;;;5059582;28;20057;-78
2023/12/19 08:18:31;;;;;;;0.65;0.65;;;;;;;;;;5057186;28;20031;-77
2023/12/19 08:20:57;;;;;;;0.50;0.38;;;;;;;;;;5061245;28;20017;-77
2023/12/19 08:23:23;;;;;;;0.95;0.47;;;;;;;;;;5064098;28;20318;-78
2023/12/19 08:25:49;;;;;;;2.00;0.60;;;;;;;;;;5059229;28;20112;-77
2023/12/19 08:28:15;;;;;;;0.75;0.50;;;;;;;;;;5058548;28;20064;-78
2023/12/19 08:30:41;;;;;;;0.73;0.68;;;;;;;;;;5058923;28;20025;-77
2023/12/19 08:33:07;;;;;;;0.50;0.30;;;;;;;;;;5057004;28;20039;-78
2023/12/19 08:35:33;;;;;;;0.80;0.40;;;;;;;;;;5058707;28;20596;-77
2023/12/19 08:37:59;;;;;;;0.75;0.40;;;;;;;;;;5056493;28;20020;-78
2023/12/19 08:40:26;;;;;;;0.55;0.50;;;;;;;;;;5056840;28;20025;-77
2023/12/19 08:42:54;;;;;;;0.52;0.52;;;;;;;;;;5075280;28;20072;-76
2023/12/19 08:45:23;;;;;;;0.70;0.40;;;;;;;;;;5075667;28;20033;-76
2023/12/19 08:47:49;;;;;;;0.77;0.40;;;;;;;;;;5074573;28;20016;-76
2023/12/19 08:50:15;;;;;;;0.63;0.40;;;;;;;;;;5080915;28;20020;-77
2023/12/19 08:52:42;;;;;;;0.43;0.40;;;;;;;;;;5075328;28;20051;-76
2023/12/19 08:55:10;;;;;;;1.50;0.70;;;;;;;;;;5076416;28;20005;-76
2023/12/19 08:57:36;;;;;;;1.27;0.80;;;;;;;;;;5076063;28;20028;-76
2023/12/19 09:00:03;;;;;;;0.40;0.30;;;;;;;;;;5068263;28;20014;-78
2023/12/19 09:02:29;;;;;;;1.48;0.90;;;;;;;;;;5071599;28;20029;-78
2023/12/19 09:04:55;;;;;;;2.25;0.63;;;;;;;;;;5074542;28;20037;-78
2023/12/19 09:07:22;;;;;;;1.25;0.80;;;;;;;;;;5069789;28;20036;-77
2023/12/19 09:09:48;;;;;;;0.63;0.50;;;;;;;;;;5068532;28;20016;-77
2023/12/19 09:12:14;;;;;;;1.52;0.98;;;;;;;;;;5064787;28;20110;-77
2023/12/19 09:14:40;;;;;;;1.42;0.43;;;;;;;;;;5066350;28;20040;-78
2023/12/19 09:17:06;;;;;;;2.40;1.02;;;;;;;;;;5063802;28;20052;-76
2023/12/19 09:19:34;;;;;;;1.83;0.80;;;;;;;;;;5054259;28;20032;-77
2023/12/19 09:22:01;;;;;;;2.03;1.10;;;;;;;;;;5062975;28;20045;-78
2023/12/19 09:24:30;;;;;;;1.73;0.82;;;;;;;;;;5066899;28;20033;-77
2023/12/19 09:26:57;;;;;;;1.55;0.75;;;;;;;;;;5062467;28;20104;-77
2023/12/19 09:29:25;;;;;;;0.95;0.82;;;;;;;;;;5061966;28;20096;-78
2023/12/19 09:31:52;;;;;;;1.00;0.85;;;;;;;;;;5061285;28;20025;-77
2023/12/19 09:34:18;;;;;;;1.42;1.02;;;;;;;;;;5061594;28;20021;-77
2023/12/19 09:36:45;;;;;;;1.30;1.00;;;;;;;;;;5059961;28;20029;-79
2023/12/19 09:39:14;;;;;;;0.98;0.85;;;;;;;;;;5063728;28;20039;-78
2023/12/19 09:41:45;;;;;;;2.58;1.35;;;;;;;;;;5061405;28;20036;-77
2023/12/19 09:44:11;;;;;;;0.80;0.75;;;;;;;;;;5057675;28;20025;-78
2023/12/19 09:46:38;;;;;;;0.75;0.70;;;;;;;;;;5051341;28;20033;-78
2023/12/19 09:49:04;;;;;;;0.93;0.85;;;;;;;;;;5065795;28;20021;-78
2023/12/19 09:51:34;;;;;;;1.15;0.55;;;;;;;;;;5065291;28;20029;-77
2023/12/19 09:54:01;;;;;;;0.52;0.50;;;;;;;;;;5066547;28;20526;-78
2023/12/19 09:56:28;;;;;;;1.00;0.70;;;;;;;;;;5046189;28;20018;-78
2023/12/19 09:58:55;;;;;;;0.93;0.50;;;;;;;;;;5061741;28;20029;-77
2023/12/19 10:01:21;;;;;;;0.35;0.35;;;;;;;;;;5064091;28;20369;-78
2023/12/19 10:03:49;;;;;;;1.55;0.80;;;;;;;;;;5062832;28;20096;-79
2023/12/19 10:06:17;;;;;;;0.50;0.50;;;;;;;;;;5061707;28;20041;-78
2023/12/19 10:08:44;;;;;;;1.10;0.70;;;;;;;;;;5061004;28;20029;-78
2023/12/19 10:11:18;;;;;;;0.60;0.60;;;;;;;;;;5062897;28;20059;-77
2023/12/19 10:13:45;;;;;;;0.35;0.35;;;;;;;;;;5076060;28;20472;-77
2023/12/19 10:16:12;;;;;;;0.70;0.70;;;;;;;;;;5063744;28;20020;-79
2023/12/19 10:18:39;;;;;;;0.90;0.60;;;;;;;;;;5061698;28;20033;-78
2023/12/19 10:21:10;;;;;;;1.00;0.80;;;;;;;;;;5063780;28;20025;-77
2023/12/19 10:23:39;;;;;;;0.98;0.80;;;;;;;;;;5077115;28;20028;-78
2023/12/19 10:26:06;;;;;;;1.77;1.00;;;;;;;;;;5056249;28;20029;-79
2023/12/19 10:28:33;;;;;;;1.35;0.85;;;;;;;;;;5060702;28;20501;-77
2023/12/19 10:31:12;;;;;;;1.52;0.88;;;;;;;;;;5066973;28;20021;-78
2023/12/19 10:33:55;;;;;;;0.65;0.45;;;;;;;;;;5070096;28;20116;-77
2023/12/19 10:36:24;;;;;;;1.27;0.90;;;;;;;;;;5053895;28;20044;-78
2023/12/19 10:38:51;;;;;;;0.80;0.80;;;;;;;;;;5063606;28;20044;-78
2023/12/19 10:41:22;;;;;;;1.70;0.98;;;;;;;;;;5062257;28;20029;-78
2023/12/19 10:43:52;;;;;;;1.75;0.75;;;;;;;;;;5061565;28;20040;-78
2023/12/19 10:46:24;;;;;;;1.83;1.00;;;;;;;;;;5059732;28;20051;-77
2023/12/19 10:48:50;;;;;;;2.15;1.00;;;;;;;;;;5063811;28;20080;-78
2023/12/19 10:51:20;;;;;;;2.42;1.00;;;;;;;;;;5063771;28;20021;-77
2023/12/19 10:53:49;;;;;;;2.38;1.08;;;;;;;;;;5063029;28;20024;-78
2023/12/19 10:56:22;;;;;;;1.27;0.70;;;;;;;;;;5061711;28;20021;-77
2023/12/19 10:58:52;;;;;;;2.05;1.00;;;;;;;;;;5064315;28;20056;-76
2023/12/19 11:01:21;;;;;;;0.98;0.88;;;;;;;;;;5069900;28;20028;-77
2023/12/19 11:03:52;;;;;;;3.33;1.10;;;;;;;;;;5078831;28;20056;-77
2023/12/19 11:06:20;;;;;;;2.90;1.20;;;;;;;;;;5076168;28;20032;-76
2023/12/19 11:08:48;;;;;;;1.50;1.05;;;;;;;;;;5076834;28;20028;-76
2023/12/19 11:11:23;;;;;;;1.10;0.75;;;;;;;;;;5077470;28;20016;-77
2023/12/19 11:13:50;;;;;;;2.30;1.00;;;;;;;;;;5077731;28;20021;-76
2023/12/19 11:16:19;;;;;;;0.93;0.77;;;;;;;;;;5076069;28;20025;-77
2023/12/19 11:18:53;;;;;;;1.92;1.05;;;;;;;;;;5073436;28;20017;-76
2023/12/19 11:21:22;;;;;;;1.35;0.73;;;;;;;;;;5063952;28;20017;-78
2023/12/19 11:24:03;;;;;;;1.83;0.75;;;;;;;;;;5063753;28;20025;-78
2023/12/19 11:26:32;;;;;;;2.47;0.90;;;;;;;;;;5058924;28;20013;-77
2023/12/19 11:28:59;;;;;;;2.00;0.60;;;;;;;;;;5059291;28;20074;-77
2023/12/19 11:31:32;;;;;;;1.25;0.70;;;;;;;;;;5058539;28;20017;-77
2023/12/19 11:34:18;;;;;;;0.60;0.57;;;;;;;;;;5058134;28;20017;-77
2023/12/19 11:36:44;;;;;;;1.85;0.73;;;;;;;;;;5058807;28;20024;-78
2023/12/19 11:39:33;;;;;;;0.40;0.40;;;;;;;;;;5069666;28;20083;-78
2023/12/19 11:41:59;;;;;;;1.42;0.88;;;;;;;;;;5063086;28;20124;-77
2023/12/19 11:44:38;;;;;;;1.33;0.80;;;;;;;;;;5070760;28;20083;-77
2023/12/19 11:47:15;;;;;;;1.45;0.90;;;;;;;;;;5061495;28;20434;-77
2023/12/19 11:49:42;;;;;;;3.67;0.80;;;;;;;;;;5066425;28;20379;-78
2023/12/19 11:52:08;;;;;;;1.83;0.82;;;;;;;;;;5068813;28;20049;-77
2023/12/19 11:54:34;;;;;;;0.93;0.73;;;;;;;;;;5061104;28;20048;-79
2023/12/19 11:57:01;;;;;;;1.65;0.88;;;;;;;;;;5057734;28;20095;-77
2023/12/19 11:59:47;;;;;;;2.08;1.15;;;;;;;;;;5050213;28;20111;-78
2023/12/19 12:02:26;;;;;;;1.55;0.70;;;;;;;;;;5052539;28;20046;-78
2023/12/19 12:05:02;;;;;;;1.77;0.80;;;;;;;;;;5061307;28;20056;-78
2023/12/19 12:07:29;;;;;;;0.85;0.60;;;;;;;;;;5059904;28;20120;-78
2023/12/19 12:10:06;;;;;;;3.60;0.93;;;;;;;;;;5059416;28;20444;-79
2023/12/19 12:12:38;;;;;;;0.70;0.70;;;;;;;;;;5071876;28;20027;-78
2023/12/19 12:15:14;;;;;;;0.60;0.60;;;;;;;;;;5074706;28;20056;-77
2023/12/19 12:17:40;;;;;;;0.73;0.70;;;;;;;;;;5083382;28;20045;-77
2023/12/19 12:20:08;;;;;;;1.75;0.75;;;;;;;;;;5074436;28;20009;-78
2023/12/19 12:22:34;;;;;;;1.27;0.47;;;;;;;;;;5072400;28;20051;-78
2023/12/19 12:25:01;;;;;;;1.05;0.60;;;;;;;;;;5073454;28;20049;-78
2023/12/19 12:27:30;;;;;;;1.02;0.63;;;;;;;;;;5063586;28;20025;-79
2023/12/19 12:29:57;;;;;;;2.28;0.88;;;;;;;;;;5059418;28;20017;-77
2023/12/19 12:32:27;;;;;;;0.88;0.68;;;;;;;;;;5062494;28;20017;-78
2023/12/19 12:34:54;;;;;;;1.13;0.80;;;;;;;;;;5079846;28;20001;-78
2023/12/19 12:37:21;;;;;;;1.52;0.90;;;;;;;;;;5072831;28;20504;-77
2023/12/19 12:39:47;;;;;;;1.08;0.75;;;;;;;;;;5083280;28;20025;-75
2023/12/19 12:42:14;;;;;;;0.93;0.80;;;;;;;;;;5060779;28;20388;-77
2023/12/19 12:44:41;;;;;;;1.17;0.90;;;;;;;;;;5069810;28;20029;-79
2023/12/19 12:47:08;;;;;;;0.85;0.82;;;;;;;;;;5075007;28;20025;-77
2023/12/19 12:49:35;;;;;;;2.67;0.98;;;;;;;;;;5075115;28;20088;-76
2023/12/19 12:52:02;;;;;;;1.70;0.88;;;;;;;;;;5075764;28;20024;-76
2023/12/19 12:54:28;;;;;;;4.78;1.15;;;;;;;;;;5076349;28;20017;-76
2023/12/19 12:56:55;;;;;;;2.72;1.33;;;;;;;;;;5075535;28;20028;-76
2023/12/19 12:59:25;;;;;;;3.47;1.33;;;;;;;;;;5075841;28;20116;-76
2023/12/19 13:01:51;;;;;;;1.55;1.08;;;;;;;;;;5075699;28;20008;-76
2023/12/19 13:04:18;;;;;;;0.98;0.80;;;;;;;;;;5075295;28;20031;-76
2023/12/19 13:06:45;;;;;;;1.95;1.08;;;;;;;;;;5075632;28;20013;-76
2023/12/19 13:09:19;;;;;;;1.30;1.08;;;;;;;;;;5075968;28;20009;-76
2023/12/19 13:11:47;;;;;;;1.85;0.98;;;;;;;;;;5082976;28;20033;-76
2023/12/19 13:14:13;;;;;;;1.35;0.93;;;;;;;;;;5076067;28;20017;-76
2023/12/19 13:16:39;;;;;;;1.13;0.57;;;;;;;;;;5077363;28;20044;-76
2023/12/19 13:19:05;;;;;;;1.45;0.90;;;;;;;;;;5091385;28;20017;-76
2023/12/19 13:21:32;;;;;;;0.70;0.70;;;;;;;;;;5073943;28;20017;-77
2023/12/19 13:23:58;;;;;;;1.38;0.85;;;;;;;;;;5074560;28;20365;-76
2023/12/19 13:26:32;;;;;;;1.63;0.98;;;;;;;;;;5071772;28;20050;-78
2023/12/19 13:28:59;;;;;;;1.45;0.80;;;;;;;;;;5074281;28;20017;-78
2023/12/19 13:31:27;;;;;;;0.60;0.60;;;;;;;;;;5066805;28;20017;-78
2023/12/19 13:33:53;;;;;;;1.05;0.57;;;;;;;;;;5063826;28;20055;-77
2023/12/19 13:36:21;;;;;;;1.45;0.60;;;;;;;;;;5070541;28;20013;-78
2023/12/19 13:38:47;;;;;;;1.33;0.85;;;;;;;;;;5080792;28;20037;-78
2023/12/19 13:41:17;;;;;;;0.68;0.60;;;;;;;;;;5069156;28;20025;-77
2023/12/19 13:43:44;;;;;;;1.15;0.77;;;;;;;;;;5068114;28;20040;-78
2023/12/19 13:46:10;;;;;;;0.93;0.65;;;;;;;;;;5068854;28;20025;-77
2023/12/19 13:48:37;;;;;;;0.82;0.82;;;;;;;;;;5062940;28;20120;-77
2023/12/19 13:51:03;;;;;;;0.50;0.50;;;;;;;;;;5048439;28;20052;-77
2023/12/19 13:53:29;;;;;;;2.33;0.85;;;;;;;;;;5065598;28;20483;-76
2023/12/19 13:55:55;;;;;;;1.02;0.80;;;;;;;;;;5061693;28;20049;-77
2023/12/19 13:58:22;;;;;;;0.50;0.40;;;;;;;;;;5077069;28;20025;-77
2023/12/19 14:00:51;;;;;;;0.70;0.68;;;;;;;;;;5067102;28;20025;-78
2023/12/19 14:03:17;;;;;;;1.02;0.88;;;;;;;;;;5065574;28;20285;-78
2023/12/19 14:05:44;;;;;;;0.73;0.73;;;;;;;;;;5063327;28;20094;-79
2023/12/19 14:08:15;;;;;;;1.50;0.98;;;;;;;;;;5062112;28;20029;-78
2023/12/19 14:10:42;;;;;;;1.35;1.20;;;;;;;;;;5066224;28;20021;-77
2023/12/19 14:13:09;;;;;;;1.17;0.98;;;;;;;;;;5066877;28;20036;-80
2023/12/19 14:15:36;;;;;;;1.13;1.00;;;;;;;;;;5061231;28;20531;-78
2023/12/19 14:18:03;;;;;;;1.10;0.95;;;;;;;;;;5059436;28;20028;-77
2023/12/19 14:20:30;;;;;;;0.90;0.80;;;;;;;;;;5044600;28;20079;-77
2023/12/19 14:22:58;;;;;;;0.80;0.70;;;;;;;;;;5058132;28;20021;-78
2023/12/19 14:25:24;;;;;;;0.95;0.77;;;;;;;;;;5061242;28;20052;-77
2023/12/19 14:27:52;;;;;;;1.13;1.00;;;;;;;;;;5058083;28;20075;-77
2023/12/19 14:30:19;;;;;;;1.02;0.90;;;;;;;;;;5059202;28;20025;-78
2023/12/19 14:32:45;;;;;;;1.20;0.80;;;;;;;;;;5060499;28;20021;-77
2023/12/19 14:35:11;;;;;;;1.08;0.82;;;;;;;;;;5051770;28;20491;-78
2023/12/19 14:37:37;;;;;;;0.82;0.70;;;;;;;;;;5061029;28;20071;-77
2023/12/19 14:40:04;;;;;;;0.50;0.50;;;;;;;;;;5058551;28;20021;-78
2023/12/19 14:42:30;;;;;;;0.75;0.43;;;;;;;;;;5060751;28;20048;-78